createdAt,value
2023-01-18T00:01:19.244Z,95433.91
2023-01-18T00:04:08.394Z,95425.25
2023-01-18T00:06:57.273Z,95420.03
2023-01-18T00:09:45.348Z,95420.03
2023-01-18T00:12:34.921Z,95425.25
2023-01-18T00:15:22.535Z,95429.66
2023-01-18T00:18:09.950Z,95435.03
2023-01-18T00:21:02.837Z,95427.22
2023-01-18T00:23:50.409Z,95425.59
2023-01-18T00:26:38.901Z,95421.97
2023-01-18T00:29:26.742Z,95424.75
2023-01-18T00:32:14.719Z,95427.22
2023-01-18T00:35:07.163Z,95440.44
2023-01-18T00:37:56.104Z,95443.22
2023-01-18T00:40:46.210Z,95428.53
2023-01-18T00:43:41.771Z,95411.84
2023-01-18T00:46:29.295Z,95411.22
2023-01-18T00:49:16.858Z,95414.63
2023-01-18T00:52:04.461Z,95410.56
2023-01-18T00:54:53.625Z,95412.84
2023-01-18T00:57:41.874Z,95425.25
2023-01-18T01:00:29.405Z,95437.84
2023-01-18T01:03:17.451Z,95436.03
2023-01-18T01:06:23.075Z,95435.06
2023-01-18T01:09:10.751Z,95441.09
2023-01-18T01:12:17.845Z,95436.03
2023-01-18T01:15:24.604Z,95433.44
2023-01-18T01:18:31.145Z,95444.72
2023-01-18T01:21:36.273Z,95448.31
2023-01-18T01:24:41.364Z,95447.47
2023-01-18T01:27:30.203Z,95445.88
2023-01-18T01:30:18.119Z,95456.31
2023-01-18T01:33:05.830Z,95452.72
2023-01-18T01:35:57.794Z,95450.25
2023-01-18T01:38:45.535Z,95450.25
2023-01-18T01:41:35.858Z,95445.03
2023-01-18T01:44:51.203Z,95449.47
2023-01-18T01:47:43.443Z,95450.25
2023-01-18T01:50:38.767Z,95456.31
2023-01-18T01:53:26.208Z,95446.19
2023-01-18T01:56:14.293Z,95458.28
2023-01-18T01:59:04.715Z,95459.25
2023-01-18T02:01:53.805Z,95455.66
2023-01-18T02:04:44.266Z,95446.19
2023-01-18T02:07:33.717Z,95448.81
2023-01-18T02:10:22.013Z,95444.41
2023-01-18T02:13:12.001Z,95449.63
2023-01-18T02:16:14.695Z,95453.69
2023-01-18T02:19:31.838Z,95456.66
2023-01-18T02:22:45.187Z,95453.22
2023-01-18T02:26:27.985Z,95459.41
2023-01-18T02:29:19.359Z,95447.34
2023-01-18T02:32:24.995Z,95439.34
2023-01-18T02:35:22.832Z,95447.34
2023-01-18T02:38:14.710Z,95451.75
2023-01-18T02:41:18.990Z,95453.38
2023-01-18T02:44:24.246Z,95455.97
2023-01-18T02:47:13.657Z,95464.66
2023-01-18T02:50:01.381Z,95453.38
2023-01-18T02:52:51.104Z,95463.03
2023-01-18T02:55:49.365Z,95460.25
2023-01-18T02:58:45.791Z,95458.59
2023-01-18T03:01:41.489Z,95460.41
2023-01-18T03:04:37.016Z,95464.81
2023-01-18T03:07:31.351Z,95462.19
2023-01-18T03:10:19.237Z,95462.88
2023-01-18T03:13:16.739Z,95458.59
2023-01-18T03:16:13.102Z,95457.81
2023-01-18T03:19:20.746Z,95466.44
2023-01-18T03:22:10.290Z,95463.81
2023-01-18T03:24:57.062Z,95461.38
2023-01-18T03:28:07.326Z,95466.59
2023-01-18T03:31:17.636Z,95467.59
2023-01-18T03:34:17.932Z,95471.03
2023-01-18T03:37:12.941Z,95465.81
2023-01-18T03:40:05.931Z,95472.66
2023-01-18T03:43:03.110Z,95469.22
2023-01-18T03:45:53.589Z,95472.66
2023-01-18T03:48:41.458Z,95477.88
2023-01-18T03:51:47.676Z,95479.50
2023-01-18T03:54:47.762Z,95491.59
2023-01-18T03:57:46.177Z,95481.94
2023-01-18T04:00:33.885Z,95491.28
2023-01-18T04:03:21.257Z,95488.66
2023-01-18T04:06:09.639Z,95488.66
2023-01-18T04:08:57.308Z,95492.41
2023-01-18T04:11:46.316Z,95495.19
2023-01-18T04:14:35.357Z,95495.19
2023-01-18T04:17:22.963Z,95499.63
2023-01-18T04:20:12.410Z,95503.03
2023-01-18T04:23:00.191Z,95502.06
2023-01-18T04:25:51.034Z,95499.28
2023-01-18T04:28:40.235Z,95507.59
2023-01-18T04:31:28.114Z,95511.81
2023-01-18T04:34:16.014Z,95512.66
2023-01-18T04:37:03.765Z,95503.19
2023-01-18T04:39:51.076Z,95504.97
2023-01-18T04:42:39.196Z,95506.59
2023-01-18T04:45:28.343Z,95512.66
2023-01-18T04:48:15.787Z,95518.72
2023-01-18T04:51:03.391Z,95517.88
2023-01-18T04:53:52.086Z,95513.50
2023-01-18T04:56:40.505Z,95520.34
2023-01-18T04:59:28.442Z,95520.34
2023-01-18T05:02:17.361Z,95526.38
2023-01-18T05:05:05.963Z,95528.19
2023-01-18T05:07:54.029Z,95539.63
2023-01-18T05:10:41.447Z,95537.34
2023-01-18T05:13:29.171Z,95548.41
2023-01-18T05:16:20.666Z,95545.81
2023-01-18T05:19:09.841Z,95552.03
2023-01-18T05:21:57.545Z,95559.88
2023-01-18T05:24:45.204Z,95562.31
2023-01-18T05:27:34.169Z,95556.25
2023-01-18T05:30:21.941Z,95573.59
2023-01-18T05:33:10.345Z,95567.38
2023-01-18T05:35:59.028Z,95578.00
2023-01-18T05:38:48.808Z,95579.00
2023-01-18T05:41:36.295Z,95580.78
2023-01-18T05:44:24.356Z,95587.63
2023-01-18T05:47:12.439Z,95585.69
2023-01-18T05:50:00.500Z,95594.34
2023-01-18T05:52:49.519Z,95589.91
2023-01-18T05:55:37.278Z,95588.78
2023-01-18T05:58:25.465Z,95591.25
2023-01-18T06:01:13.720Z,95595.81
2023-01-18T06:04:01.734Z,95598.44
2023-01-18T06:06:49.396Z,95601.69
2023-01-18T06:09:38.389Z,95598.94
2023-01-18T06:12:25.890Z,95604.94
2023-01-18T06:15:15.579Z,95606.59
2023-01-18T06:18:05.298Z,95603.31
2023-01-18T06:20:55.423Z,95610.19
2023-01-18T06:23:43.395Z,95618.03
2023-01-18T06:26:32.219Z,95617.06
2023-01-18T06:29:19.649Z,95617.88
2023-01-18T06:32:07.324Z,95623.25
2023-01-18T06:34:54.853Z,95621.47
2023-01-18T06:37:42.212Z,95632.75
2023-01-18T06:40:30.367Z,95645.00
2023-01-18T06:43:19.550Z,95648.44
2023-01-18T06:46:11.540Z,95651.69
2023-01-18T06:48:59.274Z,95654.47
2023-01-18T06:51:46.896Z,95655.28
2023-01-18T06:54:34.356Z,95659.53
2023-01-18T06:57:21.966Z,95668.34
2023-01-18T07:00:13.763Z,95665.75
2023-01-18T07:03:01.460Z,95671.81
2023-01-18T07:05:49.383Z,95682.25
2023-01-18T07:08:37.168Z,95691.88
2023-01-18T07:11:24.752Z,95691.88
2023-01-18T07:14:18.215Z,95691.88
2023-01-18T07:17:07.202Z,95701.50
2023-01-18T07:19:54.706Z,95702.34
2023-01-18T07:22:42.161Z,95712.78
2023-01-18T07:25:30.339Z,95713.63
2023-01-18T07:28:19.758Z,95725.72
2023-01-18T07:31:08.373Z,95724.88
2023-01-18T07:33:57.280Z,95731.75
2023-01-18T07:36:45.356Z,95730.78
2023-01-18T07:39:32.838Z,95732.56
2023-01-18T07:42:20.546Z,95730.78
2023-01-18T07:45:09.524Z,95740.25
2023-01-18T07:47:57.186Z,95746.31
2023-01-18T07:50:53.582Z,95750.72
2023-01-18T07:53:43.557Z,95757.56
2023-01-18T07:56:31.037Z,95757.56
2023-01-18T07:59:18.598Z,95765.41
2023-01-18T08:02:06.089Z,95768.03
2023-01-18T08:04:53.595Z,95768.03
2023-01-18T08:07:43.159Z,95778.47
2023-01-18T08:10:33.321Z,95774.06
2023-01-18T08:13:20.692Z,95776.53
2023-01-18T08:16:12.357Z,95787.00
2023-01-18T08:19:00.168Z,95781.75
2023-01-18T08:21:49.146Z,95786.00
2023-01-18T08:24:38.273Z,95797.44
2023-01-18T08:27:27.304Z,95797.28
2023-01-18T08:30:15.727Z,95798.28
2023-01-18T08:33:04.843Z,95804.31
2023-01-18T08:35:52.457Z,95800.75
2023-01-18T08:38:40.556Z,95811.03
2023-01-18T08:41:30.512Z,95813.50
2023-01-18T08:44:19.014Z,95819.53
2023-01-18T08:47:06.565Z,95824.59
2023-01-18T08:49:53.951Z,95820.19
2023-01-18T08:52:41.820Z,95833.94
2023-01-18T08:55:30.658Z,95825.13
2023-01-18T08:58:19.794Z,95829.34
2023-01-18T09:01:08.350Z,95830.84
2023-01-18T09:03:58.142Z,95836.88
2023-01-18T09:06:47.311Z,95840.97
2023-01-18T09:09:35.120Z,95851.13
2023-01-18T09:12:22.705Z,95846.25
2023-01-18T09:15:11.935Z,95852.78
2023-01-18T09:18:05.107Z,95861.00
2023-01-18T09:20:54.328Z,95872.09
2023-01-18T09:23:43.641Z,95870.16
2023-01-18T09:26:31.589Z,95865.75
2023-01-18T09:29:19.311Z,95878.69
2023-01-18T09:32:09.324Z,95887.16
2023-01-18T09:34:57.102Z,95888.81
2023-01-18T09:37:45.249Z,95895.69
2023-01-18T09:40:45.109Z,95899.78
2023-01-18T09:43:39.309Z,95903.91
2023-01-18T09:46:28.198Z,95913.38
2023-01-18T09:49:26.865Z,95916.97
2023-01-18T09:52:34.122Z,95923.84
2023-01-18T09:55:33.215Z,95930.72
2023-01-18T09:58:39.249Z,95933.84
2023-01-18T10:01:33.331Z,95939.88
2023-01-18T10:04:33.579Z,95944.16
2023-01-18T10:07:24.371Z,95950.34
2023-01-18T10:10:19.116Z,95962.47
2023-01-18T10:13:39.971Z,95966.03
2023-01-18T10:16:27.782Z,95963.28
2023-01-18T10:19:23.428Z,95968.97
2023-01-18T10:22:23.008Z,95977.97
2023-01-18T10:25:21.611Z,95964.09
2023-01-18T10:28:28.512Z,95969.97
2023-01-18T10:31:39.595Z,95984.03
2023-01-18T10:34:36.379Z,95985.00
2023-01-18T10:37:38.730Z,95983.72
2023-01-18T10:40:26.336Z,95987.28
2023-01-18T10:43:20.322Z,95989.75
2023-01-18T10:46:15.139Z,95992.22
2023-01-18T10:49:04.394Z,96004.19
2023-01-18T10:51:52.314Z,96005.13
2023-01-18T10:54:51.222Z,96013.66
2023-01-18T10:57:45.593Z,96014.97
2023-01-18T11:00:41.732Z,96020.34
2023-01-18T11:03:30.110Z,96016.41
2023-01-18T11:06:20.506Z,96021.66
2023-01-18T11:09:43.791Z,96020.34
2023-01-18T11:12:43.294Z,96023.28
2023-01-18T11:15:32.135Z,96031.13
2023-01-18T11:18:19.626Z,96037.69
2023-01-18T11:21:12.285Z,96030.31
2023-01-18T11:24:07.671Z,96039.31
2023-01-18T11:27:01.665Z,96047.31
2023-01-18T11:29:50.433Z,96048.16
2023-01-18T11:32:41.336Z,96053.38
2023-01-18T11:35:34.113Z,96061.53
2023-01-18T11:38:22.832Z,96063.03
2023-01-18T11:41:21.099Z,96065.19
2023-01-18T11:44:22.591Z,96068.78
2023-01-18T11:47:22.644Z,96070.25
2023-01-18T11:50:29.229Z,96084.50
2023-01-18T11:53:41.472Z,96077.94
2023-01-18T11:56:37.721Z,96088.69
2023-01-18T11:59:31.026Z,96090.88
2023-01-18T12:02:45.530Z,96098.88
2023-01-18T12:05:53.085Z,96093.94
2023-01-18T12:09:04.437Z,96106.03
2023-01-18T12:12:18.868Z,96109.94
2023-01-18T12:15:35.925Z,96115.47
2023-01-18T12:19:11.350Z,96115.19
2023-01-18T12:22:27.818Z,96125.34
2023-01-18T12:25:47.755Z,96124.50
2023-01-18T12:28:59.019Z,96136.94
2023-01-18T12:32:06.201Z,96144.25
2023-01-18T12:35:24.894Z,96148.81
2023-01-18T12:38:23.025Z,96158.63
2023-01-18T12:41:45.528Z,96161.25
2023-01-18T12:45:04.312Z,96161.25
2023-01-18T12:48:08.742Z,96173.34
2023-01-18T12:51:00.264Z,96179.72
2023-01-18T12:53:55.642Z,96175.28
2023-01-18T12:56:47.380Z,96188.91
2023-01-18T12:59:44.159Z,96191.81
2023-01-18T13:02:35.762Z,96197.88
2023-01-18T13:05:36.936Z,96206.69
2023-01-18T13:08:44.871Z,96197.88
2023-01-18T13:11:37.125Z,96213.88
2023-01-18T13:14:34.325Z,96208.78
2023-01-18T13:17:32.485Z,96211.41
2023-01-18T13:20:36.249Z,96221.88
2023-01-18T13:23:40.062Z,96224.69
2023-01-18T13:26:31.827Z,96227.31
2023-01-18T13:29:28.391Z,96235.00
2023-01-18T13:32:33.182Z,96236.84
2023-01-18T13:35:31.609Z,96244.88
2023-01-18T13:38:36.269Z,96251.09
2023-01-18T13:41:31.378Z,96262.06
2023-01-18T13:44:32.458Z,96259.47
2023-01-18T13:47:55.875Z,96271.94
2023-01-18T13:50:47.338Z,96270.00
2023-01-18T13:53:51.057Z,96274.81
2023-01-18T13:56:40.168Z,96291.84
2023-01-18T13:59:33.524Z,96306.81
2023-01-18T14:02:29.044Z,96309.81
2023-01-18T14:05:26.959Z,96314.59
2023-01-18T14:08:29.090Z,96320.34
2023-01-18T14:11:28.735Z,96333.97
2023-01-18T14:14:30.838Z,96337.53
2023-01-18T14:17:19.064Z,96346.22
2023-01-18T14:21:15.140Z,96352.81
2023-01-18T14:24:33.896Z,96361.34
2023-01-18T14:27:26.150Z,96366.72
2023-01-18T14:30:27.315Z,96371.81
2023-01-18T14:33:21.680Z,96378.19
2023-01-18T14:36:21.589Z,96380.66
2023-01-18T14:39:13.624Z,96388.38
2023-01-18T14:42:06.702Z,96396.06
2023-01-18T14:44:58.539Z,96395.69
2023-01-18T14:47:47.756Z,96407.81
2023-01-18T14:50:41.190Z,96417.31
2023-01-18T14:53:33.410Z,96423.22
2023-01-18T14:56:23.971Z,96429.75
2023-01-18T14:59:24.955Z,96438.56
2023-01-18T15:02:22.399Z,96438.72
2023-01-18T15:05:16.939Z,96448.38
2023-01-18T15:08:05.067Z,96450.84
2023-01-18T15:10:53.687Z,96454.16
2023-01-18T15:13:51.070Z,96466.69
2023-01-18T15:16:40.579Z,96463.94
2023-01-18T15:19:39.627Z,96473.88
2023-01-18T15:22:33.035Z,96486.97
2023-01-18T15:25:27.160Z,96491.53
2023-01-18T15:28:23.606Z,96498.72
2023-01-18T15:31:16.328Z,96496.53
2023-01-18T15:34:05.565Z,96509.09
2023-01-18T15:36:53.630Z,96515.84
2023-01-18T15:39:51.265Z,96514.91
2023-01-18T15:42:44.760Z,96519.47
2023-01-18T15:45:37.734Z,96528.00
2023-01-18T15:48:29.293Z,96537.41
2023-01-18T15:51:18.299Z,96537.41
2023-01-18T15:54:06.283Z,96540.84
2023-01-18T15:56:56.968Z,96547.03
2023-01-18T15:59:44.804Z,96550.94
2023-01-18T16:02:33.006Z,96556.31
2023-01-18T16:05:23.989Z,96560.84
2023-01-18T16:08:21.227Z,96560.84
2023-01-18T16:11:31.096Z,96568.84
2023-01-18T16:14:33.379Z,96568.00
2023-01-18T16:17:24.367Z,96577.66
2023-01-18T16:20:17.749Z,96579.31
2023-01-18T16:23:15.704Z,96590.50
2023-01-18T16:26:06.678Z,96586.22
2023-01-18T16:28:54.804Z,96592.44
2023-01-18T16:31:45.049Z,96589.25
2023-01-18T16:34:32.683Z,96600.56
2023-01-18T16:37:21.139Z,96593.94
2023-01-18T16:40:11.001Z,96612.13
2023-01-18T16:43:06.456Z,96618.47
2023-01-18T16:45:58.933Z,96625.63
2023-01-18T16:48:46.746Z,96631.84
2023-01-18T16:51:34.546Z,96638.31
2023-01-18T16:54:22.780Z,96640.38
2023-01-18T16:57:20.287Z,96656.06
2023-01-18T17:00:18.964Z,96663.41
2023-01-18T17:03:06.423Z,96665.31
2023-01-18T17:05:55.307Z,96676.06
2023-01-18T17:08:43.020Z,96677.97
2023-01-18T17:11:30.621Z,96688.72
2023-01-18T17:14:18.459Z,96689.53
2023-01-18T17:17:08.895Z,96696.72
2023-01-18T17:19:56.651Z,96702.09
2023-01-18T17:22:44.206Z,96707.31
2023-01-18T17:25:32.451Z,96712.53
2023-01-18T17:28:21.118Z,96717.78
2023-01-18T17:31:09.295Z,96708.53
2023-01-18T17:33:58.912Z,96709.50
2023-01-18T17:36:46.898Z,96715.69
2023-01-18T17:39:44.029Z,96724.50
2023-01-18T17:42:37.663Z,96732.47
2023-01-18T17:45:25.225Z,96740.44
2023-01-18T17:48:12.805Z,96738.81
2023-01-18T17:51:01.890Z,96740.72
2023-01-18T17:53:49.480Z,96748.56
2023-01-18T17:56:37.718Z,96761.63
2023-01-18T17:59:25.575Z,96759.31
2023-01-18T18:02:13.086Z,96768.81
2023-01-18T18:05:00.908Z,96772.41
2023-01-18T18:07:50.517Z,96773.34
2023-01-18T18:10:38.060Z,96783.00
2023-01-18T18:13:27.868Z,96784.78
2023-01-18T18:16:18.808Z,96796.19
2023-01-18T18:19:07.476Z,96804.84
2023-01-18T18:21:55.465Z,96809.28
2023-01-18T18:24:46.772Z,96807.59
2023-01-18T18:27:44.896Z,96804.03
2023-01-18T18:30:33.011Z,96818.31
2023-01-18T18:33:22.049Z,96823.56
2023-01-18T18:36:10.496Z,96821.91
2023-01-18T18:39:01.824Z,96828.66
2023-01-18T18:41:56.611Z,96834.84
2023-01-18T18:44:47.198Z,96834.97
2023-01-18T18:47:38.943Z,96834.00
2023-01-18T18:50:27.123Z,96840.91
2023-01-18T18:53:15.203Z,96845.44
2023-01-18T18:56:02.893Z,96850.66
2023-01-18T18:58:51.719Z,96859.47
2023-01-18T19:01:39.437Z,96866.34
2023-01-18T19:04:27.713Z,96870.63
2023-01-18T19:07:17.090Z,96883.00
2023-01-18T19:10:04.994Z,96889.19
2023-01-18T19:12:52.761Z,96890.16
2023-01-18T19:15:47.018Z,96904.19
2023-01-18T19:18:37.446Z,96900.59
2023-01-18T19:21:25.746Z,96900.88
2023-01-18T19:24:13.196Z,96912.97
2023-01-18T19:27:00.710Z,96912.03
2023-01-18T19:29:48.191Z,96920.81
2023-01-18T19:32:37.058Z,96912.97
2023-01-18T19:35:27.856Z,96920.81
2023-01-18T19:38:16.969Z,96917.38
2023-01-18T19:41:04.432Z,96925.38
2023-01-18T19:43:51.816Z,96923.97
2023-01-18T19:46:39.240Z,96933.59
2023-01-18T19:49:28.274Z,96933.59
2023-01-18T19:52:15.969Z,96939.78
2023-01-18T19:55:03.785Z,96941.44
2023-01-18T19:57:52.221Z,96946.66
2023-01-18T20:00:41.347Z,96948.69
2023-01-18T20:03:29.457Z,96945.94
2023-01-18T20:06:20.748Z,96952.28
2023-01-18T20:09:18.623Z,96954.31
2023-01-18T20:12:07.816Z,96957.75
2023-01-18T20:14:55.187Z,96961.84
2023-01-18T20:17:42.517Z,96973.13
2023-01-18T20:20:32.700Z,96968.03
2023-01-18T20:23:21.913Z,96978.75
2023-01-18T20:26:09.772Z,96981.59
2023-01-18T20:28:57.606Z,96984.34
2023-01-18T20:31:50.076Z,96983.75
2023-01-18T20:34:38.088Z,96994.59
2023-01-18T20:37:25.574Z,96996.75
2023-01-18T20:40:15.222Z,97000.44
2023-01-18T20:43:03.620Z,97001.75
2023-01-18T20:46:01.721Z,97013.53
2023-01-18T20:48:49.543Z,97011.31
2023-01-18T20:51:40.235Z,97017.63
2023-01-18T20:54:28.175Z,97019.75
2023-01-18T20:57:18.093Z,97035.66
2023-01-18T21:00:07.015Z,97037.59
2023-01-18T21:02:54.667Z,97042.09
2023-01-18T21:05:43.885Z,97046.03
2023-01-18T21:08:31.347Z,97047.06
2023-01-18T21:11:18.561Z,97046.50
2023-01-18T21:14:08.204Z,97056.34
2023-01-18T21:16:56.046Z,97061.13
2023-01-18T21:19:46.071Z,97054.09
2023-01-18T21:22:34.971Z,97062.06
2023-01-18T21:25:23.013Z,97067.28
2023-01-18T21:28:10.621Z,97061.47
2023-01-18T21:30:59.628Z,97059.00
2023-01-18T21:33:50.232Z,97068.00
2023-01-18T21:36:38.562Z,97068.00
2023-01-18T21:39:26.258Z,97064.44
2023-01-18T21:42:31.716Z,97071.56
2023-01-18T21:45:41.574Z,97071.78
2023-01-18T21:48:32.607Z,97077.00
2023-01-18T21:51:44.440Z,97078.94
2023-01-18T21:54:33.009Z,97081.78
2023-01-18T21:57:20.572Z,97089.72
2023-01-18T22:00:15.016Z,97096.84
2023-01-18T22:03:03.493Z,97094.34
2023-01-18T22:05:55.541Z,97105.84
2023-01-18T22:08:43.307Z,97099.06
2023-01-18T22:11:31.078Z,97106.19
2023-01-18T22:14:18.644Z,97102.06
2023-01-18T22:17:06.227Z,97107.50
2023-01-18T22:19:58.878Z,97108.56
2023-01-18T22:22:51.274Z,97114.13
2023-01-18T22:25:39.038Z,97126.59
2023-01-18T22:28:28.504Z,97137.34
2023-01-18T22:31:20.117Z,97146.47
2023-01-18T22:34:11.573Z,97144.09
2023-01-18T22:37:01.239Z,97144.44
2023-01-18T22:39:53.625Z,97150.00
2023-01-18T22:42:41.214Z,97159.22
2023-01-18T22:45:28.749Z,97159.69
2023-01-18T22:48:19.159Z,97162.72
2023-01-18T22:51:08.747Z,97166.63
2023-01-18T22:53:58.867Z,97165.53
2023-01-18T22:56:50.928Z,97171.19
2023-01-18T22:59:41.173Z,97171.63
2023-01-18T23:02:28.671Z,97172.06
2023-01-18T23:05:16.423Z,97184.56
2023-01-18T23:08:04.269Z,97185.00
2023-01-18T23:10:57.639Z,97184.75
2023-01-18T23:14:09.986Z,97186.94
2023-01-18T23:17:14.909Z,97185.59
2023-01-18T23:20:02.335Z,97190.53
2023-01-18T23:22:49.771Z,97196.16
2023-01-18T23:25:37.110Z,97198.34
2023-01-18T23:28:27.603Z,97206.59
2023-01-18T23:31:19.198Z,97210.34
2023-01-18T23:34:06.873Z,97214.31
2023-01-18T23:36:55.170Z,97212.03
2023-01-18T23:40:00.781Z,97208.88
2023-01-18T23:43:05.855Z,97211.91
2023-01-18T23:46:11.117Z,97205.34
2023-01-18T23:49:17.489Z,97197.88
2023-01-18T23:52:22.472Z,97203.47
2023-01-18T23:55:10.898Z,97202.22
2023-01-18T23:57:59.605Z,97192.03
